createdAt,value
2018-05-31T00:00:39.843Z,3.83
2018-05-31T00:03:08.108Z,3.27
2018-05-31T00:05:36.358Z,3.80
2018-05-31T00:08:03.831Z,5.23
2018-05-31T00:10:31.304Z,4.70
2018-05-31T00:12:59.532Z,5.30
2018-05-31T00:15:27.014Z,3.93
2018-05-31T00:17:54.479Z,3.00
2018-05-31T00:20:21.987Z,4.70
2018-05-31T00:22:49.474Z,3.00
2018-05-31T00:25:16.956Z,6.83
2018-05-31T00:27:44.493Z,4.70
2018-05-31T00:30:11.972Z,4.33
2018-05-31T00:32:39.438Z,4.20
2018-05-31T00:35:07.690Z,6.13
2018-05-31T00:37:35.318Z,5.80
2018-05-31T00:40:02.814Z,4.53
2018-05-31T00:42:30.312Z,7.00
2018-05-31T00:44:57.814Z,7.00
2018-05-31T00:47:25.296Z,6.73
2018-05-31T00:49:52.781Z,5.67
2018-05-31T00:52:20.901Z,5.77
2018-05-31T00:54:48.382Z,2.97
2018-05-31T00:57:15.903Z,5.20
2018-05-31T00:59:43.435Z,6.13
2018-05-31T01:02:10.919Z,3.10
2018-05-31T01:04:38.427Z,3.40
2018-05-31T01:07:06.679Z,3.23
2018-05-31T01:09:34.668Z,6.17
2018-05-31T01:12:02.146Z,4.73
2018-05-31T01:14:30.386Z,6.00
2018-05-31T01:16:57.873Z,3.33
2018-05-31T01:19:26.116Z,2.90
2018-05-31T01:21:53.617Z,4.53
2018-05-31T01:24:21.130Z,2.60
2018-05-31T01:26:48.649Z,4.60
2018-05-31T01:29:16.148Z,5.53
2018-05-31T01:31:43.669Z,4.60
2018-05-31T01:34:11.234Z,3.70
2018-05-31T01:36:38.705Z,6.40
2018-05-31T01:39:22.854Z,4.80
2018-05-31T01:41:51.174Z,3.70
2018-05-31T01:44:18.747Z,2.93
2018-05-31T01:46:47.021Z,4.60
2018-05-31T01:49:15.328Z,3.53
2018-05-31T01:51:42.807Z,4.10
2018-05-31T01:54:10.282Z,3.80
2018-05-31T01:56:37.762Z,3.20
2018-05-31T01:59:05.998Z,5.10
2018-05-31T02:01:33.504Z,6.17
2018-05-31T02:04:01.760Z,3.30
2018-05-31T02:06:29.242Z,2.80
2018-05-31T02:08:57.480Z,2.97
2018-05-31T02:11:24.942Z,3.73
2018-05-31T02:13:53.159Z,5.57
2018-05-31T02:16:20.647Z,6.90
2018-05-31T02:18:48.126Z,4.03
2018-05-31T02:21:15.756Z,5.73
2018-05-31T02:23:43.233Z,5.40
2018-05-31T02:26:10.710Z,2.37
2018-05-31T02:28:38.172Z,2.20
2018-05-31T02:31:05.631Z,2.37
2018-05-31T02:33:33.137Z,6.30
2018-05-31T02:36:00.609Z,6.50
2018-05-31T02:38:28.086Z,4.00
2018-05-31T02:40:55.556Z,3.13
2018-05-31T02:43:23.030Z,3.67
2018-05-31T02:45:51.372Z,6.17
2018-05-31T02:48:18.856Z,2.90
2018-05-31T02:50:47.043Z,2.50
2018-05-31T02:53:15.281Z,3.60
2018-05-31T02:55:42.772Z,2.93
2018-05-31T02:58:10.224Z,6.20
2018-05-31T03:00:37.686Z,5.10
2018-05-31T03:03:05.927Z,6.73
2018-05-31T03:05:33.390Z,6.87
2018-05-31T03:08:00.870Z,7.00
2018-05-31T03:10:28.337Z,7.60
2018-05-31T03:12:56.574Z,6.50
2018-05-31T03:15:24.050Z,7.30
2018-05-31T03:17:51.516Z,5.57
2018-05-31T03:20:18.977Z,5.30
2018-05-31T03:22:46.450Z,7.47
2018-05-31T03:25:14.692Z,6.37
2018-05-31T03:27:42.168Z,3.87
2018-05-31T03:30:10.410Z,3.67
2018-05-31T03:32:37.877Z,6.33
2018-05-31T03:35:05.354Z,5.50
2018-05-31T03:37:32.819Z,8.20
2018-05-31T03:40:01.108Z,8.70
2018-05-31T03:42:29.334Z,6.57
2018-05-31T03:44:56.806Z,6.00
2018-05-31T03:47:24.306Z,6.67
2018-05-31T03:49:51.742Z,8.10
2018-05-31T03:52:20.013Z,5.17
2018-05-31T03:54:47.529Z,12.47
2018-05-31T03:57:14.999Z,11.80
2018-05-31T03:59:42.479Z,11.90
2018-05-31T04:02:09.954Z,11.90
2018-05-31T04:04:38.201Z,9.20
2018-05-31T04:07:05.846Z,11.30
2018-05-31T04:09:33.321Z,10.73
2018-05-31T04:12:00.786Z,12.50
2018-05-31T04:14:28.267Z,11.80
2018-05-31T04:16:57.141Z,9.40
2018-05-31T04:19:24.613Z,7.60
2018-05-31T04:21:52.842Z,8.63
2018-05-31T04:24:20.327Z,11.53
2018-05-31T04:26:47.827Z,10.47
2018-05-31T04:29:15.309Z,11.50
2018-05-31T04:31:42.789Z,11.37
2018-05-31T04:34:10.290Z,11.37
2018-05-31T04:36:37.766Z,11.07
2018-05-31T04:39:05.363Z,10.13
2018-05-31T04:41:32.838Z,5.70
2018-05-31T04:44:00.318Z,4.00
2018-05-31T04:46:28.565Z,4.40
2018-05-31T04:48:56.041Z,8.07
2018-05-31T04:51:24.379Z,4.60
2018-05-31T04:53:51.856Z,3.60
2018-05-31T04:56:19.326Z,5.47
2018-05-31T04:58:46.792Z,5.07
2018-05-31T05:01:15.037Z,3.73
2018-05-31T05:03:42.519Z,5.20
2018-05-31T05:06:10.031Z,4.53
2018-05-31T05:08:37.515Z,6.27
2018-05-31T05:11:04.976Z,4.20
2018-05-31T05:13:32.453Z,4.23
2018-05-31T05:15:59.927Z,8.77
2018-05-31T05:18:28.160Z,3.93
2018-05-31T05:20:55.637Z,6.00
2018-05-31T05:23:23.104Z,7.27
2018-05-31T05:25:51.339Z,7.00
2018-05-31T05:28:18.822Z,6.43
2018-05-31T05:30:46.312Z,3.90
2018-05-31T05:33:13.821Z,4.90
2018-05-31T05:35:41.713Z,4.40
2018-05-31T05:38:09.190Z,4.07
2018-05-31T05:40:37.475Z,6.90
2018-05-31T05:43:05.071Z,6.93
2018-05-31T05:45:32.548Z,4.20
2018-05-31T05:48:00.072Z,4.93
2018-05-31T05:50:27.545Z,3.30
2018-05-31T05:52:55.086Z,3.40
2018-05-31T05:55:22.590Z,3.40
2018-05-31T05:57:50.063Z,6.30
2018-05-31T06:00:18.315Z,3.97
2018-05-31T06:02:45.789Z,6.10
2018-05-31T06:05:13.300Z,6.37
2018-05-31T06:07:40.782Z,3.70
2018-05-31T06:10:08.286Z,6.43
2018-05-31T06:12:35.800Z,4.30
2018-05-31T06:15:03.261Z,3.07
2018-05-31T06:17:30.728Z,5.47
2018-05-31T06:19:58.193Z,6.43
2018-05-31T06:22:25.676Z,6.23
2018-05-31T06:24:53.148Z,5.33
2018-05-31T06:27:20.663Z,3.27
2018-05-31T06:29:48.144Z,4.60
2018-05-31T06:32:16.398Z,3.57
2018-05-31T06:34:43.930Z,3.80
2018-05-31T06:37:11.423Z,3.10
2018-05-31T06:39:38.869Z,2.90
2018-05-31T06:42:06.339Z,6.17
2018-05-31T06:44:34.386Z,3.63
2018-05-31T06:47:01.868Z,3.37
2018-05-31T06:49:30.202Z,4.77
2018-05-31T06:51:57.665Z,5.53
2018-05-31T06:54:25.166Z,4.17
2018-05-31T06:56:52.624Z,5.70
2018-05-31T06:59:20.876Z,2.60
2018-05-31T07:01:48.341Z,4.00
2018-05-31T07:04:15.816Z,3.60
2018-05-31T07:06:44.092Z,2.80
2018-05-31T07:09:12.501Z,4.97
2018-05-31T07:11:39.986Z,5.67
2018-05-31T07:14:07.459Z,4.93
2018-05-31T07:16:34.949Z,5.80
2018-05-31T07:19:03.194Z,4.33
2018-05-31T07:21:30.678Z,6.27
2018-05-31T07:23:58.910Z,4.97
2018-05-31T07:26:26.376Z,6.63
2018-05-31T07:28:53.835Z,5.80
2018-05-31T07:31:21.308Z,3.60
2018-05-31T07:33:48.781Z,3.97
2018-05-31T07:36:17.030Z,4.60
2018-05-31T07:38:44.529Z,3.30
2018-05-31T07:41:11.964Z,6.30
2018-05-31T07:43:39.419Z,6.67
2018-05-31T07:46:07.651Z,6.50
2018-05-31T07:48:35.125Z,5.27
2018-05-31T07:51:02.593Z,4.43
2018-05-31T07:53:30.088Z,4.80
2018-05-31T07:55:58.317Z,4.70
2018-05-31T07:58:25.796Z,6.53
2018-05-31T08:00:53.282Z,6.33
2018-05-31T08:03:20.769Z,6.60
2018-05-31T08:05:48.235Z,6.50
2018-05-31T08:08:15.714Z,6.27
2018-05-31T08:10:43.195Z,6.10
2018-05-31T08:13:11.442Z,6.43
2018-05-31T08:15:39.056Z,5.17
2018-05-31T08:18:06.538Z,6.03
2018-05-31T08:20:34.062Z,6.00
2018-05-31T08:23:02.305Z,3.85
2018-05-31T08:25:29.816Z,2.80
2018-05-31T08:27:57.278Z,2.22
2018-05-31T08:30:24.768Z,4.40
2018-05-31T08:32:52.240Z,4.05
2018-05-31T08:35:19.711Z,4.53
2018-05-31T08:37:47.959Z,5.12
2018-05-31T08:40:15.459Z,6.65
2018-05-31T08:42:42.992Z,6.45
2018-05-31T08:45:10.511Z,5.00
2018-05-31T08:47:37.988Z,3.85
2018-05-31T08:50:06.185Z,4.05
2018-05-31T08:52:34.449Z,4.37
2018-05-31T08:55:01.983Z,5.12
2018-05-31T08:57:29.465Z,3.65
2018-05-31T08:59:56.925Z,3.80
2018-05-31T09:02:24.425Z,4.47
2018-05-31T09:04:52.699Z,3.87
2018-05-31T09:07:20.259Z,4.32
2018-05-31T09:09:47.740Z,3.87
2018-05-31T09:12:15.218Z,3.62
2018-05-31T09:14:42.690Z,4.22
2018-05-31T09:17:10.156Z,4.22
2018-05-31T09:19:37.636Z,3.67
2018-05-31T09:22:05.874Z,2.80
2018-05-31T09:24:33.348Z,3.50
2018-05-31T09:27:00.815Z,4.07
2018-05-31T09:29:29.050Z,3.60
2018-05-31T09:31:56.523Z,2.67
2018-05-31T09:34:24.000Z,3.47
2018-05-31T09:36:52.245Z,4.20
2018-05-31T09:39:20.216Z,3.85
2018-05-31T09:41:47.690Z,3.35
2018-05-31T09:44:15.827Z,3.95
2018-05-31T09:46:43.305Z,4.15
2018-05-31T09:49:10.780Z,4.57
2018-05-31T09:51:38.245Z,3.12
2018-05-31T09:54:05.713Z,3.37
2018-05-31T09:56:33.974Z,3.10
2018-05-31T09:59:01.507Z,3.42
2018-05-31T10:01:28.987Z,3.65
2018-05-31T10:03:56.472Z,3.65
2018-05-31T10:06:24.718Z,3.92
2018-05-31T10:08:52.183Z,4.07
2018-05-31T10:11:19.683Z,4.07
2018-05-31T10:13:47.151Z,3.30
2018-05-31T10:16:14.607Z,3.47
2018-05-31T10:18:42.086Z,3.15
2018-05-31T10:21:09.562Z,2.72
2018-05-31T10:23:37.034Z,3.85
2018-05-31T10:26:04.550Z,3.40
2018-05-31T10:28:32.634Z,3.00
2018-05-31T10:31:00.118Z,3.40
2018-05-31T10:33:27.666Z,4.25
2018-05-31T10:35:55.091Z,2.65
2018-05-31T10:38:22.564Z,3.80
2018-05-31T10:40:50.046Z,4.78
2018-05-31T10:43:17.519Z,4.40
2018-05-31T10:45:45.762Z,5.45
2018-05-31T10:48:13.250Z,4.90
2018-05-31T10:50:41.490Z,5.05
2018-05-31T10:53:08.965Z,4.53
2018-05-31T10:55:36.458Z,3.62
2018-05-31T10:58:03.949Z,4.03
2018-05-31T11:00:31.427Z,4.12
2018-05-31T11:02:58.909Z,3.15
2018-05-31T11:05:26.390Z,3.35
2018-05-31T11:07:53.879Z,6.03
2018-05-31T11:10:21.343Z,3.85
2018-05-31T11:12:48.843Z,3.62
2018-05-31T11:15:17.089Z,4.07
2018-05-31T11:17:44.562Z,2.87
2018-05-31T11:20:12.031Z,3.83
2018-05-31T11:22:40.290Z,4.03
2018-05-31T11:25:07.774Z,2.65
2018-05-31T11:27:36.066Z,3.72
2018-05-31T11:30:03.531Z,3.97
2018-05-31T11:32:31.009Z,4.18
2018-05-31T11:34:58.552Z,4.00
2018-05-31T11:37:26.021Z,3.53
2018-05-31T11:39:53.524Z,3.45
2018-05-31T11:42:20.998Z,4.07
2018-05-31T11:44:49.234Z,4.10
2018-05-31T11:47:16.706Z,2.90
2018-05-31T11:49:44.181Z,2.85
2018-05-31T11:52:12.413Z,3.40
2018-05-31T11:54:39.870Z,3.33
2018-05-31T11:57:07.362Z,3.40
2018-05-31T11:59:34.835Z,4.03
2018-05-31T12:02:03.075Z,2.85
2018-05-31T12:04:30.533Z,3.03
2018-05-31T12:06:58.043Z,3.17
2018-05-31T12:09:25.539Z,3.40
2018-05-31T12:11:53.011Z,3.60
2018-05-31T12:14:20.473Z,3.80
2018-05-31T12:16:49.466Z,2.45
2018-05-31T12:19:16.970Z,3.83
2018-05-31T12:21:44.443Z,3.37
2018-05-31T12:24:11.920Z,3.42
2018-05-31T12:26:39.424Z,3.72
2018-05-31T12:29:07.646Z,3.60
2018-05-31T12:31:35.127Z,3.20
2018-05-31T12:34:02.596Z,2.30
2018-05-31T12:36:30.067Z,2.85
2018-05-31T12:39:02.433Z,3.30
2018-05-31T12:41:29.965Z,3.17
2018-05-31T12:43:57.434Z,2.95
2018-05-31T12:46:24.926Z,2.60
2018-05-31T12:48:55.229Z,3.28
2018-05-31T12:51:28.522Z,2.83
2018-05-31T12:53:56.874Z,3.03
2018-05-31T12:56:24.369Z,2.90
2018-05-31T12:58:53.123Z,2.80
2018-05-31T13:01:20.595Z,2.83
2018-05-31T13:03:48.055Z,3.10
2018-05-31T13:06:15.592Z,3.10
2018-05-31T13:08:43.079Z,3.20
2018-05-31T13:11:11.330Z,3.20
2018-05-31T13:13:38.797Z,3.12
2018-05-31T13:16:06.266Z,3.30
2018-05-31T13:18:34.531Z,4.18
2018-05-31T13:21:02.016Z,3.50
2018-05-31T13:23:30.240Z,2.78
2018-05-31T13:25:57.738Z,2.95
2018-05-31T13:28:25.979Z,3.78
2018-05-31T13:30:53.458Z,4.43
2018-05-31T13:33:20.954Z,3.50
2018-05-31T13:35:49.180Z,3.47
2018-05-31T13:38:16.646Z,3.28
2018-05-31T13:40:45.106Z,3.40
2018-05-31T13:43:12.627Z,3.53
2018-05-31T13:45:43.954Z,4.18
2018-05-31T13:48:12.282Z,4.25
2018-05-31T13:50:39.744Z,4.30
2018-05-31T13:53:07.205Z,3.35
2018-05-31T13:55:34.678Z,3.50
2018-05-31T13:58:02.167Z,3.10
2018-05-31T14:00:30.504Z,3.22
2018-05-31T14:02:57.972Z,2.83
2018-05-31T14:05:25.536Z,2.85
2018-05-31T14:07:53.133Z,2.75
2018-05-31T14:10:21.359Z,3.25
2018-05-31T14:12:48.839Z,2.85
2018-05-31T14:15:16.300Z,3.55
2018-05-31T14:17:43.770Z,2.80
2018-05-31T14:20:12.006Z,3.58
2018-05-31T14:22:39.483Z,3.10
2018-05-31T14:25:07.802Z,2.37
2018-05-31T14:27:39.229Z,3.55
2018-05-31T14:30:12.317Z,3.12
2018-05-31T14:32:40.740Z,3.55
2018-05-31T14:35:08.943Z,4.62
2018-05-31T14:37:36.413Z,2.75
2018-05-31T14:40:03.930Z,3.22
2018-05-31T14:42:31.403Z,4.32
2018-05-31T14:44:58.937Z,4.35
2018-05-31T14:47:26.407Z,2.50
2018-05-31T14:49:53.904Z,3.90
2018-05-31T14:52:21.372Z,3.72
2018-05-31T14:54:49.597Z,4.12
2018-05-31T14:57:17.121Z,3.47
2018-05-31T14:59:44.631Z,2.90
2018-05-31T15:02:12.110Z,4.15
2018-05-31T15:04:39.578Z,2.72
2018-05-31T15:07:07.866Z,4.05
2018-05-31T15:09:35.368Z,3.40
2018-05-31T15:12:02.840Z,3.10
2018-05-31T15:14:30.331Z,4.37
2018-05-31T15:17:00.498Z,4.00
2018-05-31T15:19:27.998Z,3.65
2018-05-31T15:21:56.028Z,3.85
2018-05-31T15:24:24.264Z,3.05
2018-05-31T15:26:52.680Z,3.70
2018-05-31T15:29:20.204Z,3.53
2018-05-31T15:31:48.459Z,4.18
2018-05-31T15:34:15.943Z,3.90
2018-05-31T15:36:44.168Z,3.85
2018-05-31T15:39:11.660Z,4.32
2018-05-31T15:41:39.898Z,3.28
2018-05-31T15:44:07.367Z,3.90
2018-05-31T15:46:34.830Z,4.18
2018-05-31T15:49:02.305Z,3.80
2018-05-31T15:51:29.780Z,2.53
2018-05-31T15:53:58.005Z,3.42
2018-05-31T15:56:25.490Z,3.25
2018-05-31T15:58:53.749Z,2.67
2018-05-31T16:01:21.218Z,3.97
2018-05-31T16:03:49.485Z,4.47
2018-05-31T16:06:16.961Z,2.55
2018-05-31T16:08:45.292Z,3.95
2018-05-31T16:11:12.762Z,4.65
2018-05-31T16:13:40.241Z,3.80
2018-05-31T16:16:07.757Z,3.37
2018-05-31T16:18:35.284Z,3.47
2018-05-31T16:21:03.531Z,4.15
2018-05-31T16:23:31.002Z,3.28
2018-05-31T16:25:59.240Z,2.50
2018-05-31T16:28:27.606Z,3.33
2018-05-31T16:30:55.065Z,2.53
2018-05-31T16:33:22.556Z,3.42
2018-05-31T16:35:50.024Z,3.85
2018-05-31T16:38:18.282Z,3.90
2018-05-31T16:40:45.822Z,2.67
2018-05-31T16:43:14.012Z,2.90
2018-05-31T16:45:41.498Z,4.22
2018-05-31T16:48:09.753Z,4.00
2018-05-31T16:50:37.236Z,2.85
2018-05-31T16:53:05.483Z,2.83
2018-05-31T16:55:33.739Z,2.70
2018-05-31T16:58:01.194Z,3.50
2018-05-31T17:00:28.670Z,3.40
2018-05-31T17:02:56.131Z,2.35
2018-05-31T17:05:23.605Z,3.75
2018-05-31T17:07:51.859Z,3.33
2018-05-31T17:10:19.366Z,4.03
2018-05-31T17:12:47.608Z,1.73
2018-05-31T17:15:15.099Z,3.60
2018-05-31T17:17:43.344Z,3.35
2018-05-31T17:20:10.831Z,1.90
2018-05-31T17:22:38.314Z,3.12
2018-05-31T17:25:06.613Z,3.10
2018-05-31T17:27:34.093Z,4.00
2018-05-31T17:30:02.346Z,3.50
2018-05-31T17:32:29.840Z,3.53
2018-05-31T17:34:57.307Z,2.40
2018-05-31T17:37:25.531Z,2.97
2018-05-31T17:39:53.026Z,3.15
2018-05-31T17:42:21.303Z,3.55
2018-05-31T17:44:48.798Z,2.50
2018-05-31T17:47:16.283Z,2.70
2018-05-31T17:49:43.818Z,2.75
2018-05-31T17:52:11.313Z,2.70
2018-05-31T17:54:39.645Z,3.70
2018-05-31T17:57:07.106Z,3.20
2018-05-31T17:59:34.577Z,2.67
2018-05-31T18:02:02.049Z,3.03
2018-05-31T18:04:29.648Z,4.75
2018-05-31T18:06:57.887Z,4.80
2018-05-31T18:09:25.380Z,3.12
2018-05-31T18:11:53.622Z,3.25
2018-05-31T18:14:21.111Z,3.33
2018-05-31T18:16:48.567Z,2.62
2018-05-31T18:19:16.804Z,2.58
2018-05-31T18:21:44.290Z,3.37
2018-05-31T18:24:11.821Z,2.22
2018-05-31T18:26:39.324Z,2.75
2018-05-31T18:29:07.570Z,2.20
2018-05-31T18:31:35.067Z,1.65
2018-05-31T18:34:03.294Z,1.73
2018-05-31T18:36:30.765Z,2.30
2018-05-31T18:38:58.232Z,2.80
2018-05-31T18:41:25.754Z,2.50
2018-05-31T18:43:53.226Z,4.28
2018-05-31T18:46:20.718Z,4.30
2018-05-31T18:48:48.960Z,2.83
2018-05-31T18:51:19.531Z,2.37
2018-05-31T18:53:47.881Z,4.45
2018-05-31T18:56:15.353Z,3.97
2018-05-31T18:58:43.318Z,3.70
2018-05-31T19:01:11.707Z,3.05
2018-05-31T19:03:39.942Z,3.53
2018-05-31T19:06:07.417Z,3.42
2018-05-31T19:08:34.898Z,4.62
2018-05-31T19:11:03.230Z,2.80
2018-05-31T19:13:36.405Z,2.60
2018-05-31T19:16:03.889Z,3.00
2018-05-31T19:18:36.957Z,3.03
2018-05-31T19:21:04.447Z,2.50
2018-05-31T19:23:31.930Z,2.47
2018-05-31T19:26:00.183Z,4.25
2018-05-31T19:28:27.670Z,4.18
2018-05-31T19:31:01.577Z,3.58
2018-05-31T19:33:29.822Z,4.95
2018-05-31T19:36:02.963Z,2.87
2018-05-31T19:38:30.454Z,3.20
2018-05-31T19:40:57.951Z,3.83
2018-05-31T19:43:31.267Z,2.37
2018-05-31T19:45:58.734Z,2.00
2018-05-31T19:48:26.217Z,3.70
2018-05-31T19:50:53.683Z,2.90
2018-05-31T19:53:26.704Z,2.80
2018-05-31T19:55:54.167Z,2.27
2018-05-31T19:58:28.097Z,2.70
2018-05-31T20:01:01.155Z,2.23
2018-05-31T20:03:35.974Z,2.25
2018-05-31T20:06:03.453Z,1.90
2018-05-31T20:08:31.681Z,2.10
2018-05-31T20:11:03.144Z,1.97
2018-05-31T20:13:30.624Z,3.43
2018-05-31T20:15:58.095Z,4.77
2018-05-31T20:18:26.325Z,5.40
2018-05-31T20:20:53.853Z,4.63
2018-05-31T20:23:21.284Z,3.80
2018-05-31T20:25:49.560Z,5.83
2018-05-31T20:28:17.794Z,5.17
2018-05-31T20:30:45.290Z,6.10
2018-05-31T20:33:12.779Z,5.13
2018-05-31T20:35:40.276Z,4.20
2018-05-31T20:38:07.782Z,4.57
2018-05-31T20:40:36.021Z,3.07
2018-05-31T20:43:03.490Z,2.27
2018-05-31T20:45:31.741Z,2.63
2018-05-31T20:47:59.235Z,2.50
2018-05-31T20:50:27.487Z,2.63
2018-05-31T20:52:54.951Z,3.53
2018-05-31T20:55:22.432Z,4.07
2018-05-31T20:57:50.673Z,6.10
2018-05-31T21:00:18.163Z,6.00
2018-05-31T21:02:46.399Z,5.07
2018-05-31T21:05:13.882Z,6.37
2018-05-31T21:07:41.356Z,6.50
2018-05-31T21:10:09.593Z,7.80
2018-05-31T21:12:37.084Z,4.43
2018-05-31T21:15:05.338Z,2.97
2018-05-31T21:17:32.807Z,2.40
2018-05-31T21:20:01.068Z,2.50
2018-05-31T21:22:28.541Z,3.60
2018-05-31T21:24:56.026Z,5.73
2018-05-31T21:27:23.527Z,3.60
2018-05-31T21:29:51.020Z,3.83
2018-05-31T21:32:19.294Z,3.30
2018-05-31T21:34:46.751Z,6.50
2018-05-31T21:37:14.993Z,6.40
2018-05-31T21:39:42.474Z,7.20
2018-05-31T21:42:09.942Z,6.77
2018-05-31T21:44:38.255Z,8.03
2018-05-31T21:47:05.758Z,6.67
2018-05-31T21:49:33.212Z,7.10
2018-05-31T21:52:00.694Z,6.20
2018-05-31T21:54:28.937Z,5.93
2018-05-31T21:56:56.462Z,3.63
2018-05-31T21:59:23.947Z,5.10
2018-05-31T22:01:51.413Z,3.87
2018-05-31T22:04:18.882Z,6.23
2018-05-31T22:06:46.343Z,5.03
2018-05-31T22:09:13.818Z,6.00
2018-05-31T22:11:42.054Z,5.77
2018-05-31T22:14:09.652Z,2.37
2018-05-31T22:16:37.902Z,1.40
2018-05-31T22:19:05.371Z,1.20
2018-05-31T22:21:32.885Z,0.97
2018-05-31T22:24:00.371Z,1.20
2018-05-31T22:26:27.847Z,1.10
2018-05-31T22:28:55.310Z,1.10
2018-05-31T22:31:23.565Z,1.03
2018-05-31T22:33:51.026Z,0.90
2018-05-31T22:36:18.517Z,1.40
2018-05-31T22:38:46.771Z,0.80
2018-05-31T22:41:14.253Z,0.97
2018-05-31T22:43:42.499Z,1.00
2018-05-31T22:46:09.969Z,1.10
2018-05-31T22:48:38.199Z,1.17
2018-05-31T22:51:05.676Z,1.20
2018-05-31T22:53:33.156Z,0.90
2018-05-31T22:56:00.626Z,1.20
2018-05-31T22:58:28.869Z,1.00
2018-05-31T23:00:56.401Z,1.40
2018-05-31T23:03:23.865Z,0.93
2018-05-31T23:05:51.373Z,0.90
2018-05-31T23:08:19.603Z,0.70
2018-05-31T23:10:47.071Z,1.10
2018-05-31T23:13:14.540Z,1.13
2018-05-31T23:15:42.067Z,0.83
2018-05-31T23:18:09.548Z,1.17
2018-05-31T23:20:37.079Z,0.70
2018-05-31T23:23:04.589Z,1.00
2018-05-31T23:25:32.832Z,1.00
2018-05-31T23:28:00.305Z,1.17
2018-05-31T23:30:27.776Z,1.00
2018-05-31T23:32:56.026Z,0.80
2018-05-31T23:35:23.508Z,0.80
2018-05-31T23:37:50.974Z,1.00
2018-05-31T23:40:18.446Z,0.90
2018-05-31T23:42:46.684Z,1.00
2018-05-31T23:45:14.146Z,1.00
2018-05-31T23:47:41.618Z,0.97
2018-05-31T23:50:09.877Z,0.90
2018-05-31T23:52:37.352Z,0.93
2018-05-31T23:55:04.847Z,1.03
2018-05-31T23:57:32.321Z,0.80
2018-05-31T23:59:59.779Z,0.80
